createdAt,value
2018-07-01T00:00:58.265Z,0.80
2018-07-01T00:03:25.951Z,0.90
2018-07-01T00:05:53.599Z,0.90
2018-07-01T00:08:21.282Z,0.90
2018-07-01T00:10:48.959Z,0.80
2018-07-01T00:13:16.605Z,0.90
2018-07-01T00:15:44.318Z,0.80
2018-07-01T00:18:12.007Z,1.05
2018-07-01T00:20:39.692Z,0.90
2018-07-01T00:23:07.396Z,0.93
2018-07-01T00:25:35.050Z,0.82
2018-07-01T00:28:02.725Z,1.00
2018-07-01T00:30:30.397Z,0.88
2018-07-01T00:32:58.078Z,0.90
2018-07-01T00:35:25.766Z,1.00
2018-07-01T00:37:53.718Z,1.27
2018-07-01T00:40:21.397Z,0.90
2018-07-01T00:42:49.070Z,1.05
2018-07-01T00:45:16.737Z,1.00
2018-07-01T00:47:44.409Z,1.10
2018-07-01T00:50:12.055Z,1.07
2018-07-01T00:52:39.831Z,1.20
2018-07-01T00:55:07.474Z,1.05
2018-07-01T00:57:35.102Z,1.30
2018-07-01T01:00:02.841Z,1.10
2018-07-01T01:02:30.530Z,0.90
2018-07-01T01:04:58.191Z,0.95
2018-07-01T01:07:25.874Z,1.20
2018-07-01T01:09:53.548Z,1.02
2018-07-01T01:12:21.222Z,1.20
2018-07-01T01:14:48.894Z,1.00
2018-07-01T01:17:16.540Z,1.20
2018-07-01T01:19:44.178Z,0.95
2018-07-01T01:22:11.832Z,0.95
2018-07-01T01:24:39.596Z,1.05
2018-07-01T01:27:07.255Z,1.40
2018-07-01T01:29:34.884Z,1.40
2018-07-01T01:32:02.614Z,1.22
2018-07-01T01:34:30.352Z,1.30
2018-07-01T01:36:58.032Z,1.40
2018-07-01T01:39:29.443Z,1.30
2018-07-01T01:42:33.702Z,1.40
2018-07-01T01:45:13.354Z,1.32
2018-07-01T01:47:58.418Z,1.55
2018-07-01T01:50:32.686Z,1.35
2018-07-01T01:53:05.995Z,1.27
2018-07-01T01:55:39.376Z,1.40
2018-07-01T01:58:19.790Z,1.67
2018-07-01T02:00:53.028Z,1.55
2018-07-01T02:03:27.716Z,1.42
2018-07-01T02:06:12.933Z,1.40
2018-07-01T02:08:44.377Z,1.70
2018-07-01T02:11:12.102Z,1.40
2018-07-01T02:13:42.561Z,1.50
2018-07-01T02:16:14.407Z,1.40
2018-07-01T02:18:42.120Z,1.80
2018-07-01T02:21:09.864Z,1.67
2018-07-01T02:23:40.582Z,1.30
2018-07-01T02:26:08.350Z,1.92
2018-07-01T02:28:36.157Z,1.42
2018-07-01T02:31:03.826Z,1.60
2018-07-01T02:33:31.491Z,1.30
2018-07-01T02:35:59.180Z,1.50
2018-07-01T02:38:26.843Z,1.60
2018-07-01T02:40:54.545Z,1.55
2018-07-01T02:43:22.311Z,1.50
2018-07-01T02:45:49.978Z,1.50
2018-07-01T02:48:17.650Z,1.47
2018-07-01T02:50:45.348Z,1.40
2018-07-01T02:53:12.991Z,1.40
2018-07-01T02:55:40.655Z,1.45
2018-07-01T02:58:08.338Z,1.32
2018-07-01T03:00:35.953Z,1.70
2018-07-01T03:03:03.643Z,1.47
2018-07-01T03:05:31.312Z,1.75
2018-07-01T03:07:59.018Z,1.30
2018-07-01T03:10:26.686Z,1.60
2018-07-01T03:12:54.314Z,1.55
2018-07-01T03:15:21.988Z,1.50
2018-07-01T03:17:49.654Z,1.40
2018-07-01T03:20:17.421Z,1.40
2018-07-01T03:22:45.071Z,1.60
2018-07-01T03:25:12.749Z,1.45
2018-07-01T03:27:40.390Z,1.32
2018-07-01T03:30:08.063Z,1.52
2018-07-01T03:32:35.731Z,1.50
2018-07-01T03:35:03.537Z,1.50
2018-07-01T03:37:31.154Z,1.30
2018-07-01T03:39:58.811Z,1.37
2018-07-01T03:42:26.522Z,1.27
2018-07-01T03:44:54.220Z,1.32
2018-07-01T03:47:21.910Z,1.45
2018-07-01T03:49:49.557Z,1.42
2018-07-01T03:52:17.218Z,2.45
2018-07-01T03:54:44.846Z,1.47
2018-07-01T03:57:12.551Z,1.75
2018-07-01T03:59:40.164Z,1.52
2018-07-01T04:02:07.785Z,1.20
2018-07-01T04:04:35.415Z,1.30
2018-07-01T04:07:03.067Z,1.50
2018-07-01T04:09:33.232Z,1.30
2018-07-01T04:12:01.043Z,1.30
2018-07-01T04:14:28.682Z,1.30
2018-07-01T04:16:56.331Z,1.52
2018-07-01T04:19:34.906Z,1.37
2018-07-01T04:22:03.933Z,1.22
2018-07-01T04:24:32.160Z,1.30
2018-07-01T04:26:59.842Z,1.70
2018-07-01T04:29:27.492Z,1.30
2018-07-01T04:31:55.174Z,1.10
2018-07-01T04:34:22.798Z,1.20
2018-07-01T04:36:50.458Z,1.20
2018-07-01T04:39:18.162Z,1.30
2018-07-01T04:41:45.806Z,1.70
2018-07-01T04:44:13.458Z,1.25
2018-07-01T04:46:41.213Z,1.40
2018-07-01T04:49:08.903Z,1.30
2018-07-01T04:51:36.668Z,1.10
2018-07-01T04:54:04.378Z,1.10
2018-07-01T04:56:32.008Z,1.10
2018-07-01T04:58:59.673Z,1.10
2018-07-01T05:01:27.368Z,1.30
2018-07-01T05:03:55.049Z,1.20
2018-07-01T05:06:22.702Z,1.30
2018-07-01T05:08:50.381Z,1.25
2018-07-01T05:11:18.063Z,1.00
2018-07-01T05:13:45.695Z,1.20
2018-07-01T05:16:13.345Z,1.10
2018-07-01T05:18:41.021Z,1.05
2018-07-01T05:21:08.686Z,1.00
2018-07-01T05:23:36.398Z,1.15
2018-07-01T05:26:04.111Z,0.90
2018-07-01T05:28:31.769Z,1.20
2018-07-01T05:30:59.475Z,1.10
2018-07-01T05:33:27.107Z,0.98
2018-07-01T05:35:54.738Z,0.90
2018-07-01T05:38:22.402Z,1.00
2018-07-01T05:40:50.062Z,0.88
2018-07-01T05:43:17.806Z,1.25
2018-07-01T05:45:45.474Z,0.88
2018-07-01T05:48:13.922Z,0.80
2018-07-01T05:50:41.584Z,0.98
2018-07-01T05:53:09.136Z,0.95
2018-07-01T05:55:36.805Z,0.70
2018-07-01T05:58:04.604Z,1.15
2018-07-01T06:00:32.330Z,0.80
2018-07-01T06:03:00.033Z,0.80
2018-07-01T06:05:27.748Z,0.80
2018-07-01T06:07:55.402Z,0.78
2018-07-01T06:10:23.079Z,0.95
2018-07-01T06:12:50.794Z,0.80
2018-07-01T06:15:18.513Z,0.80
2018-07-01T06:17:46.135Z,0.70
2018-07-01T06:20:13.806Z,0.70
2018-07-01T06:22:41.470Z,0.80
2018-07-01T06:25:09.122Z,0.80
2018-07-01T06:27:36.786Z,0.70
2018-07-01T06:30:05.822Z,0.70
2018-07-01T06:32:33.521Z,0.70
2018-07-01T06:35:01.196Z,0.75
2018-07-01T06:37:28.856Z,0.60
2018-07-01T06:39:56.498Z,0.70
2018-07-01T06:42:24.156Z,0.60
2018-07-01T06:44:51.795Z,0.80
2018-07-01T06:47:19.846Z,0.60
2018-07-01T06:49:47.523Z,0.70
2018-07-01T06:52:15.172Z,0.70
2018-07-01T06:54:42.861Z,0.60
2018-07-01T06:57:10.509Z,0.80
2018-07-01T06:59:38.193Z,0.90
2018-07-01T07:02:06.170Z,0.80
2018-07-01T07:04:33.887Z,0.60
2018-07-01T07:07:01.530Z,0.70
2018-07-01T07:09:29.241Z,0.70
2018-07-01T07:11:56.966Z,0.70
2018-07-01T07:14:24.606Z,0.60
2018-07-01T07:16:52.264Z,0.80
2018-07-01T07:19:19.942Z,0.70
2018-07-01T07:21:47.616Z,0.70
2018-07-01T07:24:15.263Z,0.80
2018-07-01T07:26:42.890Z,0.85
2018-07-01T07:29:10.517Z,0.60
2018-07-01T07:31:38.195Z,0.78
2018-07-01T07:34:05.820Z,0.60
2018-07-01T07:36:33.502Z,0.60
2018-07-01T07:39:01.150Z,0.80
2018-07-01T07:41:28.839Z,0.60
2018-07-01T07:43:56.574Z,0.60
2018-07-01T07:46:24.246Z,0.60
2018-07-01T07:48:51.962Z,0.65
2018-07-01T07:51:19.554Z,0.70
2018-07-01T07:53:47.170Z,0.70
2018-07-01T07:56:14.802Z,0.80
2018-07-01T07:58:42.441Z,0.60
2018-07-01T08:01:10.098Z,0.90
2018-07-01T08:03:37.866Z,0.98
2018-07-01T08:06:05.747Z,0.70
2018-07-01T08:08:33.401Z,0.70
2018-07-01T08:11:01.099Z,0.72
2018-07-01T08:13:28.794Z,0.80
2018-07-01T08:15:56.477Z,0.88
2018-07-01T08:18:24.139Z,0.90
2018-07-01T08:20:51.761Z,1.12
2018-07-01T08:23:19.444Z,0.60
2018-07-01T08:25:47.085Z,0.72
2018-07-01T08:28:14.781Z,0.70
2018-07-01T08:30:42.451Z,0.65
2018-07-01T08:33:10.185Z,0.60
2018-07-01T08:35:37.805Z,1.20
2018-07-01T08:38:05.488Z,0.60
2018-07-01T08:40:33.356Z,0.70
2018-07-01T08:43:01.119Z,0.80
2018-07-01T08:45:28.726Z,0.62
2018-07-01T08:47:56.512Z,0.80
2018-07-01T08:50:24.210Z,0.60
2018-07-01T08:52:52.094Z,0.70
2018-07-01T08:55:19.753Z,0.72
2018-07-01T08:57:47.435Z,0.65
2018-07-01T09:00:15.093Z,0.72
2018-07-01T09:02:42.894Z,1.40
2018-07-01T09:05:10.559Z,0.80
2018-07-01T09:07:38.241Z,1.02
2018-07-01T09:10:05.895Z,0.70
2018-07-01T09:12:33.658Z,0.62
2018-07-01T09:15:01.298Z,0.60
2018-07-01T09:17:29.061Z,0.80
2018-07-01T09:19:56.833Z,0.50
2018-07-01T09:22:24.499Z,0.60
2018-07-01T09:24:52.168Z,0.60
2018-07-01T09:27:19.813Z,0.60
2018-07-01T09:29:53.092Z,0.60
2018-07-01T09:32:20.760Z,0.60
2018-07-01T09:34:48.466Z,0.50
2018-07-01T09:37:16.117Z,0.60
2018-07-01T09:39:43.780Z,0.60
2018-07-01T09:42:11.426Z,0.60
2018-07-01T09:44:39.190Z,0.68
2018-07-01T09:47:06.854Z,0.60
2018-07-01T09:49:34.527Z,0.70
2018-07-01T09:52:02.269Z,0.55
2018-07-01T09:54:29.932Z,0.70
2018-07-01T09:56:57.566Z,0.60
2018-07-01T09:59:25.246Z,0.68
2018-07-01T10:01:52.910Z,0.60
2018-07-01T10:04:20.551Z,0.80
2018-07-01T10:06:48.213Z,0.68
2018-07-01T10:09:15.901Z,0.60
2018-07-01T10:11:43.564Z,0.60
2018-07-01T10:14:11.207Z,0.70
2018-07-01T10:16:38.882Z,0.80
2018-07-01T10:19:06.580Z,0.60
2018-07-01T10:21:34.276Z,0.60
2018-07-01T10:24:02.049Z,0.60
2018-07-01T10:26:29.793Z,0.80
2018-07-01T10:29:08.036Z,0.70
2018-07-01T10:31:36.538Z,0.60
2018-07-01T10:34:04.923Z,0.60
2018-07-01T10:36:32.600Z,0.70
2018-07-01T10:39:00.269Z,0.60
2018-07-01T10:41:27.906Z,0.70
2018-07-01T10:43:56.531Z,0.60
2018-07-01T10:46:25.274Z,0.60
2018-07-01T10:48:53.513Z,0.60
2018-07-01T10:51:21.154Z,0.60
2018-07-01T10:53:48.812Z,0.70
2018-07-01T10:56:16.580Z,0.70
2018-07-01T10:58:44.244Z,0.60
2018-07-01T11:01:12.027Z,0.60
2018-07-01T11:03:39.773Z,0.70
2018-07-01T11:06:07.457Z,0.60
2018-07-01T11:08:35.846Z,0.50
2018-07-01T11:11:04.000Z,0.60
2018-07-01T11:13:31.691Z,0.70
2018-07-01T11:15:59.754Z,0.70
2018-07-01T11:18:27.852Z,0.65
2018-07-01T11:20:55.534Z,0.60
2018-07-01T11:23:23.196Z,0.60
2018-07-01T11:25:50.899Z,0.60
2018-07-01T11:28:18.576Z,0.55
2018-07-01T11:30:46.266Z,0.60
2018-07-01T11:33:14.077Z,0.65
2018-07-01T11:35:41.735Z,0.75
2018-07-01T11:38:09.442Z,0.50
2018-07-01T11:40:37.095Z,0.70
2018-07-01T11:43:04.804Z,0.60
2018-07-01T11:45:32.488Z,0.78
2018-07-01T11:48:00.154Z,0.80
2018-07-01T11:50:27.800Z,0.80
2018-07-01T11:52:55.511Z,0.60
2018-07-01T11:55:23.218Z,0.60
2018-07-01T11:57:50.992Z,0.60
2018-07-01T12:00:18.726Z,0.70
2018-07-01T12:02:46.414Z,0.70
2018-07-01T12:05:16.664Z,0.70
2018-07-01T12:07:41.819Z,0.60
2018-07-01T12:10:09.804Z,0.70
2018-07-01T12:12:37.434Z,0.57
2018-07-01T12:15:05.085Z,0.75
2018-07-01T12:17:32.790Z,0.80
2018-07-01T12:20:00.674Z,0.70
2018-07-01T12:22:28.349Z,0.80
2018-07-01T12:24:56.022Z,0.70
2018-07-01T12:27:23.685Z,0.60
2018-07-01T12:29:51.381Z,0.68
2018-07-01T12:32:19.014Z,0.70
2018-07-01T12:34:46.663Z,0.70
2018-07-01T12:37:14.372Z,0.80
2018-07-01T12:39:42.150Z,0.70
2018-07-01T12:42:10.028Z,0.60
2018-07-01T12:44:37.526Z,0.60
2018-07-01T12:47:05.185Z,0.60
2018-07-01T12:49:32.866Z,0.50
2018-07-01T12:52:00.535Z,0.50
2018-07-01T12:54:28.165Z,0.57
2018-07-01T12:56:55.888Z,0.60
2018-07-01T12:59:23.548Z,0.50
2018-07-01T13:01:51.205Z,0.70
2018-07-01T13:04:18.789Z,0.70
2018-07-01T13:06:46.450Z,0.70
2018-07-01T13:09:14.138Z,0.63
2018-07-01T13:11:42.344Z,0.60
2018-07-01T13:14:10.012Z,0.70
2018-07-01T13:16:37.636Z,0.70
2018-07-01T13:19:05.868Z,0.60
2018-07-01T13:21:33.518Z,0.60
2018-07-01T13:24:01.231Z,0.70
2018-07-01T13:26:28.855Z,0.70
2018-07-01T13:28:56.514Z,0.80
2018-07-01T13:31:24.213Z,0.60
2018-07-01T13:33:51.857Z,0.60
2018-07-01T13:36:19.534Z,0.70
2018-07-01T13:38:47.194Z,0.72
2018-07-01T13:41:14.872Z,0.80
2018-07-01T13:43:42.549Z,0.60
2018-07-01T13:46:10.186Z,0.60
2018-07-01T13:48:37.816Z,0.60
2018-07-01T13:51:05.578Z,0.70
2018-07-01T13:53:33.222Z,0.60
2018-07-01T13:56:00.885Z,0.78
2018-07-01T13:58:28.541Z,0.80
2018-07-01T14:00:56.196Z,0.60
2018-07-01T14:03:23.840Z,0.60
2018-07-01T14:05:51.516Z,0.55
2018-07-01T14:08:19.185Z,0.60
2018-07-01T14:10:46.863Z,0.70
2018-07-01T14:13:14.518Z,0.70
2018-07-01T14:15:42.174Z,0.68
2018-07-01T14:18:09.829Z,0.60
2018-07-01T14:20:37.490Z,0.60
2018-07-01T14:23:05.244Z,0.60
2018-07-01T14:25:32.898Z,0.57
2018-07-01T14:28:00.585Z,0.83
2018-07-01T14:30:28.219Z,1.22
2018-07-01T14:32:55.866Z,0.60
2018-07-01T14:35:23.526Z,0.70
2018-07-01T14:37:51.182Z,0.60
2018-07-01T14:40:18.801Z,0.70
2018-07-01T14:42:46.442Z,0.60
2018-07-01T14:45:14.150Z,0.60
2018-07-01T14:47:41.792Z,0.50
2018-07-01T14:50:09.426Z,0.60
2018-07-01T14:52:37.098Z,0.70
2018-07-01T14:55:04.901Z,0.60
2018-07-01T14:57:32.581Z,0.50
2018-07-01T15:00:00.206Z,0.60
2018-07-01T15:02:27.878Z,0.60
2018-07-01T15:04:55.540Z,0.60
2018-07-01T15:07:23.190Z,0.60
2018-07-01T15:09:50.972Z,0.53
2018-07-01T15:12:18.695Z,0.60
2018-07-01T15:14:46.304Z,0.50
2018-07-01T15:17:13.953Z,0.60
2018-07-01T15:19:41.638Z,0.60
2018-07-01T15:22:09.369Z,0.70
2018-07-01T15:24:37.163Z,0.60
2018-07-01T15:27:04.922Z,0.60
2018-07-01T15:29:32.559Z,0.53
2018-07-01T15:32:00.294Z,0.60
2018-07-01T15:34:27.979Z,0.70
2018-07-01T15:36:55.742Z,0.60
2018-07-01T15:39:23.428Z,0.70
2018-07-01T15:41:51.169Z,0.80
2018-07-01T15:44:18.991Z,0.60
2018-07-01T15:46:46.707Z,0.60
2018-07-01T15:49:14.390Z,0.80
2018-07-01T15:51:42.141Z,0.60
2018-07-01T15:54:09.790Z,0.80
2018-07-01T15:56:37.506Z,0.70
2018-07-01T15:59:05.194Z,0.60
2018-07-01T16:01:32.837Z,0.50
2018-07-01T16:04:00.482Z,0.90
2018-07-01T16:06:28.242Z,0.77
2018-07-01T16:08:55.908Z,0.70
2018-07-01T16:11:23.640Z,0.60
2018-07-01T16:13:51.300Z,0.70
2018-07-01T16:16:18.954Z,0.60
2018-07-01T16:18:46.607Z,0.63
2018-07-01T16:21:14.279Z,0.70
2018-07-01T16:23:41.935Z,0.60
2018-07-01T16:26:15.047Z,0.60
2018-07-01T16:28:48.205Z,0.60
2018-07-01T16:31:15.830Z,0.80
2018-07-01T16:33:43.541Z,0.50
2018-07-01T16:36:11.211Z,0.57
2018-07-01T16:38:38.885Z,0.60
2018-07-01T16:41:06.539Z,0.63
2018-07-01T16:43:34.187Z,0.60
2018-07-01T16:46:01.865Z,0.70
2018-07-01T16:48:29.496Z,0.67
2018-07-01T16:50:57.059Z,0.50
2018-07-01T16:53:24.704Z,0.50
2018-07-01T16:55:52.390Z,0.63
2018-07-01T16:58:20.022Z,0.60
2018-07-01T17:00:47.696Z,0.90
2018-07-01T17:03:15.353Z,0.87
2018-07-01T17:05:42.976Z,0.70
2018-07-01T17:08:10.659Z,0.83
2018-07-01T17:10:38.317Z,0.83
2018-07-01T17:13:06.076Z,0.93
2018-07-01T17:15:33.842Z,1.10
2018-07-01T17:18:01.490Z,0.90
2018-07-01T17:20:29.102Z,1.00
2018-07-01T17:22:56.741Z,0.77
2018-07-01T17:25:24.389Z,0.60
2018-07-01T17:27:52.119Z,0.70
2018-07-01T17:30:19.761Z,0.60
2018-07-01T17:32:53.026Z,0.80
2018-07-01T17:35:20.762Z,1.30
2018-07-01T17:37:48.398Z,1.60
2018-07-01T17:40:16.102Z,1.00
2018-07-01T17:42:43.771Z,0.60
2018-07-01T17:45:11.419Z,0.70
2018-07-01T17:47:39.174Z,0.60
2018-07-01T17:50:06.927Z,0.70
2018-07-01T17:52:34.573Z,0.60
2018-07-01T17:55:02.223Z,0.60
2018-07-01T17:57:29.959Z,0.60
2018-07-01T17:59:57.767Z,0.70
2018-07-01T18:02:25.491Z,0.83
2018-07-01T18:04:53.205Z,0.70
2018-07-01T18:07:20.901Z,0.50
2018-07-01T18:09:48.606Z,0.80
2018-07-01T18:12:16.269Z,0.57
2018-07-01T18:14:43.941Z,0.53
2018-07-01T18:17:11.661Z,0.80
2018-07-01T18:19:39.276Z,0.70
2018-07-01T18:22:27.969Z,0.70
2018-07-01T18:24:53.946Z,0.60
2018-07-01T18:27:02.583Z,0.60
2018-07-01T18:29:30.240Z,0.60
2018-07-01T18:31:58.006Z,0.90
2018-07-01T18:34:25.689Z,0.77
2018-07-01T18:36:54.342Z,0.70
2018-07-01T18:39:21.977Z,0.70
2018-07-01T18:41:49.684Z,0.60
2018-07-01T18:44:17.358Z,0.80
2018-07-01T18:46:45.225Z,0.70
2018-07-01T18:49:12.971Z,0.80
2018-07-01T18:51:40.746Z,0.70
2018-07-01T18:54:08.436Z,0.60
2018-07-01T18:56:36.149Z,0.83
2018-07-01T18:59:03.995Z,0.70
2018-07-01T19:01:31.752Z,0.50
2018-07-01T19:03:59.395Z,0.80
2018-07-01T19:06:27.129Z,0.60
2018-07-01T19:08:54.821Z,0.70
2018-07-01T19:11:22.606Z,0.80
2018-07-01T19:13:50.556Z,0.80
2018-07-01T19:16:18.279Z,0.90
2018-07-01T19:18:45.933Z,1.37
2018-07-01T19:21:13.665Z,1.00
2018-07-01T19:23:41.347Z,0.80
2018-07-01T19:26:09.483Z,0.70
2018-07-01T19:28:37.412Z,0.70
2018-07-01T19:31:05.124Z,0.70
2018-07-01T19:33:32.795Z,0.70
2018-07-01T19:36:00.466Z,0.70
2018-07-01T19:38:28.122Z,0.70
2018-07-01T19:40:55.839Z,0.80
2018-07-01T19:43:23.595Z,0.70
2018-07-01T19:45:51.223Z,0.75
2018-07-01T19:48:18.934Z,0.80
2018-07-01T19:50:46.576Z,0.80
2018-07-01T19:53:14.221Z,1.00
2018-07-01T19:55:42.982Z,0.88
2018-07-01T19:58:10.759Z,1.00
2018-07-01T20:00:38.400Z,1.17
2018-07-01T20:03:06.071Z,0.98
2018-07-01T20:05:33.717Z,0.98
2018-07-01T20:08:01.392Z,1.10
2018-07-01T20:10:29.055Z,1.40
2018-07-01T20:12:56.759Z,1.27
2018-07-01T20:15:24.425Z,1.57
2018-07-01T20:17:52.102Z,1.67
2018-07-01T20:20:19.813Z,1.47
2018-07-01T20:22:47.472Z,1.77
2018-07-01T20:25:15.166Z,1.60
2018-07-01T20:27:43.671Z,2.00
2018-07-01T20:30:11.453Z,1.15
2018-07-01T20:32:39.140Z,1.20
2018-07-01T20:35:07.085Z,1.07
2018-07-01T20:37:34.770Z,1.00
2018-07-01T20:40:02.489Z,0.90
2018-07-01T20:42:30.177Z,1.10
2018-07-01T20:44:57.850Z,1.05
2018-07-01T20:47:26.547Z,0.95
2018-07-01T20:49:54.189Z,0.88
2018-07-01T20:52:21.828Z,0.90
2018-07-01T20:54:49.493Z,1.00
2018-07-01T20:57:17.166Z,0.80
2018-07-01T20:59:44.812Z,0.82
2018-07-01T21:02:12.493Z,0.90
2018-07-01T21:04:40.136Z,1.00
2018-07-01T21:07:07.847Z,0.90
2018-07-01T21:09:35.526Z,0.90
2018-07-01T21:12:03.298Z,1.00
2018-07-01T21:14:30.971Z,0.70
2018-07-01T21:16:58.607Z,0.80
2018-07-01T21:19:26.257Z,0.98
2018-07-01T21:21:54.380Z,0.90
2018-07-01T21:24:22.076Z,0.80
2018-07-01T21:26:49.750Z,0.85
2018-07-01T21:29:17.438Z,0.80
2018-07-01T21:31:45.099Z,0.80
2018-07-01T21:34:12.746Z,0.78
2018-07-01T21:36:40.410Z,1.00
2018-07-01T21:39:09.730Z,0.80
2018-07-01T21:41:37.434Z,0.80
2018-07-01T21:44:05.354Z,0.95
2018-07-01T21:46:33.084Z,0.80
2018-07-01T21:49:00.767Z,0.90
2018-07-01T21:51:28.407Z,0.90
2018-07-01T21:53:56.145Z,0.80
2018-07-01T21:56:23.866Z,0.80
2018-07-01T21:58:51.546Z,0.90
2018-07-01T22:01:19.255Z,0.80
2018-07-01T22:03:46.924Z,0.80
2018-07-01T22:06:14.594Z,0.75
2018-07-01T22:08:42.266Z,0.90
2018-07-01T22:11:57.371Z,0.80
2018-07-01T22:14:42.801Z,0.90
2018-07-01T22:17:11.211Z,0.80
2018-07-01T22:19:39.106Z,1.02
2018-07-01T22:22:06.824Z,0.90
2018-07-01T22:24:36.367Z,1.00
2018-07-01T22:27:04.315Z,0.90
2018-07-01T22:29:32.066Z,1.00
2018-07-01T22:31:59.766Z,0.90
2018-07-01T22:34:27.412Z,0.95
2018-07-01T22:36:55.519Z,1.02
2018-07-01T22:39:27.076Z,1.00
2018-07-01T22:41:55.652Z,1.10
2018-07-01T22:44:23.336Z,1.00
2018-07-01T22:46:51.605Z,1.10
2018-07-01T22:49:19.347Z,1.10
2018-07-01T22:51:47.030Z,1.32
2018-07-01T22:54:14.659Z,1.30
2018-07-01T22:56:42.346Z,1.25
2018-07-01T22:59:10.057Z,1.17
2018-07-01T23:01:50.978Z,1.60
2018-07-01T23:04:18.709Z,1.40
2018-07-01T23:06:46.386Z,1.50
2018-07-01T23:09:14.057Z,1.55
2018-07-01T23:11:41.728Z,1.42
2018-07-01T23:14:09.409Z,1.80
2018-07-01T23:16:37.103Z,1.50
2018-07-01T23:19:04.828Z,2.00
2018-07-01T23:21:32.493Z,2.15
2018-07-01T23:24:00.156Z,1.70
2018-07-01T23:26:27.894Z,2.42
2018-07-01T23:28:55.554Z,1.77
2018-07-01T23:31:23.212Z,2.15
2018-07-01T23:33:50.886Z,1.92
2018-07-01T23:36:18.528Z,2.37
2018-07-01T23:38:46.184Z,2.27
2018-07-01T23:41:13.874Z,2.30
2018-07-01T23:43:41.513Z,2.20
2018-07-01T23:46:09.211Z,2.60
2018-07-01T23:48:36.898Z,2.00
2018-07-01T23:51:04.576Z,2.47
2018-07-01T23:53:32.249Z,2.05
2018-07-01T23:55:59.973Z,2.95
2018-07-01T23:58:27.596Z,2.40
